sensor_id;sensor_type;location;lat;lon;timestamp;pressure;altitude;pressure_sealevel;temperature;humidity
32875;BME280;40468;42.128;24.750;2023-03-30T00:00:22;100345.75;;;7.06;31.99
32875;BME280;40468;42.128;24.750;2023-03-30T00:01:54;100342.44;;;7.01;32.03
32875;BME280;40468;42.128;24.750;2023-03-30T00:03:26;100346.78;;;6.99;32.18
32875;BME280;40468;42.128;24.750;2023-03-30T00:04:58;100352.03;;;6.96;32.35
32875;BME280;40468;42.128;24.750;2023-03-30T00:06:33;100343.44;;;6.94;32.24
32875;BME280;40468;42.128;24.750;2023-03-30T00:08:08;100346.94;;;6.93;32.39
32875;BME280;40468;42.128;24.750;2023-03-30T00:09:41;100189.28;;;6.02;32.63
32875;BME280;40468;42.128;24.750;2023-03-30T00:11:14;100347.00;;;6.90;32.56
32875;BME280;40468;42.128;24.750;2023-03-30T00:12:47;100343.56;;;6.88;32.65
32875;BME280;40468;42.128;24.750;2023-03-30T00:14:20;100344.50;;;6.86;32.59
32875;BME280;40468;42.128;24.750;2023-03-30T00:15:52;100337.69;;;6.81;32.73
32875;BME280;40468;42.128;24.750;2023-03-30T00:17:23;100336.13;;;6.73;32.66
32875;BME280;40468;42.128;24.750;2023-03-30T00:18:55;100334.50;;;6.69;32.83
32875;BME280;40468;42.128;24.750;2023-03-30T00:20:27;100337.97;;;6.68;32.80
32875;BME280;40468;42.128;24.750;2023-03-30T00:22:03;100240.16;;;6.01;32.89
32875;BME280;40468;42.128;24.750;2023-03-30T00:23:35;100339.75;;;6.66;32.94
32875;BME280;40468;42.128;24.750;2023-03-30T00:25:10;100332.06;;;6.63;33.08
32875;BME280;40468;42.128;24.750;2023-03-30T00:26:42;100342.44;;;6.59;33.23
32875;BME280;40468;42.128;24.750;2023-03-30T00:28:14;100345.16;;;6.53;33.38
32875;BME280;40468;42.128;24.750;2023-03-30T00:29:45;100344.34;;;6.51;33.38
32875;BME280;40468;42.128;24.750;2023-03-30T00:31:17;100345.25;;;6.49;33.50
32875;BME280;40468;42.128;24.750;2023-03-30T00:32:49;100341.06;;;6.42;33.48
32875;BME280;40468;42.128;24.750;2023-03-30T00:34:20;100343.66;;;6.42;33.57
32875;BME280;40468;42.128;24.750;2023-03-30T00:35:52;100342.03;;;6.37;33.56
32875;BME280;40468;42.128;24.750;2023-03-30T00:37:25;100349.81;;;6.36;33.83
32875;BME280;40468;42.128;24.750;2023-03-30T00:38:57;100349.00;;;6.34;33.75
32875;BME280;40468;42.128;24.750;2023-03-30T00:40:33;100342.97;;;6.32;33.88
32875;BME280;40468;42.128;24.750;2023-03-30T00:42:04;100349.91;;;6.30;33.94
32875;BME280;40468;42.128;24.750;2023-03-30T00:43:54;100336.22;;;6.25;33.99
32875;BME280;40468;42.128;24.750;2023-03-30T00:45:26;100338.00;;;6.23;34.06
32875;BME280;40468;42.128;24.750;2023-03-30T00:46:59;100336.25;;;6.23;34.05
32875;BME280;40468;42.128;24.750;2023-03-30T00:48:31;100340.56;;;6.23;34.21
32875;BME280;40468;42.128;24.750;2023-03-30T00:50:06;100338.03;;;6.20;34.28
32875;BME280;40468;42.128;24.750;2023-03-30T00:51:39;100185.44;;;5.30;34.27
32875;BME280;40468;42.128;24.750;2023-03-30T00:53:17;100325.22;;;6.13;34.53
32875;BME280;40468;42.128;24.750;2023-03-30T00:54:51;100334.63;;;6.18;34.65
32875;BME280;40468;42.128;24.750;2023-03-30T00:56:28;100337.22;;;6.18;34.60
32875;BME280;40468;42.128;24.750;2023-03-30T00:58:00;100332.94;;;6.17;34.61
32875;BME280;40468;42.128;24.750;2023-03-30T00:59:31;100338.16;;;6.13;34.81
32875;BME280;40468;42.128;24.750;2023-03-30T01:01:05;100341.59;;;6.14;34.69
32875;BME280;40468;42.128;24.750;2023-03-30T01:02:41;100342.50;;;6.13;34.71
32875;BME280;40468;42.128;24.750;2023-03-30T01:04:15;100345.94;;;6.12;34.67
32875;BME280;40468;42.128;24.750;2023-03-30T01:05:48;100341.72;;;6.08;34.68
32875;BME280;40468;42.128;24.750;2023-03-30T01:07:22;100344.34;;;6.06;34.82
32875;BME280;40468;42.128;24.750;2023-03-30T01:08:55;100339.19;;;6.05;35.03
32875;BME280;40468;42.128;24.750;2023-03-30T01:10:28;100338.28;;;6.06;35.06
32875;BME280;40468;42.128;24.750;2023-03-30T01:11:59;100338.28;;;6.07;35.04
32875;BME280;40468;42.128;24.750;2023-03-30T01:13:33;100349.47;;;6.08;35.08
32875;BME280;40468;42.128;24.750;2023-03-30T01:15:07;100346.03;;;6.07;35.07
32875;BME280;40468;42.128;24.750;2023-03-30T01:16:43;100341.75;;;6.06;35.21
32875;BME280;40468;42.128;24.750;2023-03-30T01:18:26;100346.94;;;6.05;35.08
32875;BME280;40468;42.128;24.750;2023-03-30T01:22:24;100338.34;;;6.03;35.36
32875;BME280;40468;42.128;24.750;2023-03-30T01:24:17;100336.66;;;6.02;35.32
32875;BME280;40468;42.128;24.750;2023-03-30T01:28:24;100338.50;;;5.95;35.52
32875;BME280;40468;42.128;24.750;2023-03-30T01:30:12;100333.38;;;5.90;35.50
32875;BME280;40468;42.128;24.750;2023-03-30T01:32:13;100337.69;;;5.90;35.54
32875;BME280;40468;42.128;24.750;2023-03-30T01:34:20;100328.22;;;5.89;35.50
32875;BME280;40468;42.128;24.750;2023-03-30T01:36:13;100333.41;;;5.89;35.73
32875;BME280;40468;42.128;24.750;2023-03-30T01:38:13;100333.41;;;5.87;35.58
32875;BME280;40468;42.128;24.750;2023-03-30T01:39:55;100337.78;;;5.84;35.77
32875;BME280;40468;42.128;24.750;2023-03-30T01:41:32;100325.84;;;5.77;35.83
32875;BME280;40468;42.128;24.750;2023-03-30T01:43:10;100344.66;;;5.85;35.97
32875;BME280;40468;42.128;24.750;2023-03-30T01:44:50;100239.19;;;5.05;36.01
32875;BME280;40468;42.128;24.750;2023-03-30T01:46:27;100337.13;;;5.73;36.10
32875;BME280;40468;42.128;24.750;2023-03-30T01:48:07;100297.16;;;5.41;36.20
32875;BME280;40468;42.128;24.750;2023-03-30T01:49:43;100345.72;;;5.75;36.18
32875;BME280;40468;42.128;24.750;2023-03-30T01:51:19;100351.78;;;5.70;36.30
32875;BME280;40468;42.128;24.750;2023-03-30T01:52:57;100357.88;;;5.68;36.34
32875;BME280;40468;42.128;24.750;2023-03-30T01:54:33;100351.88;;;5.64;36.38
32875;BME280;40468;42.128;24.750;2023-03-30T01:56:13;100348.50;;;5.61;36.52
32875;BME280;40468;42.128;24.750;2023-03-30T01:57:50;100349.34;;;5.61;36.51
32875;BME280;40468;42.128;24.750;2023-03-30T01:59:27;100343.31;;;5.62;36.59
32875;BME280;40468;42.128;24.750;2023-03-30T02:01:02;100212.09;;;4.76;36.82
32875;BME280;40468;42.128;24.750;2023-03-30T02:02:37;100341.66;;;5.60;36.83
32875;BME280;40468;42.128;24.750;2023-03-30T02:04:10;100342.44;;;5.62;37.02
32875;BME280;40468;42.128;24.750;2023-03-30T02:05:44;100341.66;;;5.60;37.05
32875;BME280;40468;42.128;24.750;2023-03-30T02:07:20;100342.53;;;5.57;36.94
32875;BME280;40468;42.128;24.750;2023-03-30T02:08:54;100346.88;;;5.55;37.13
32875;BME280;40468;42.128;24.750;2023-03-30T02:10:31;100348.66;;;5.53;37.21
32875;BME280;40468;42.128;24.750;2023-03-30T02:12:06;100353.81;;;5.52;37.15
32875;BME280;40468;42.128;24.750;2023-03-30T02:13:40;100342.75;;;5.43;37.21
32875;BME280;40468;42.128;24.750;2023-03-30T02:15:15;100355.63;;;5.46;37.32
32875;BME280;40468;42.128;24.750;2023-03-30T02:16:49;100350.53;;;5.40;37.23
32875;BME280;40468;42.128;24.750;2023-03-30T02:18:22;100353.13;;;5.42;37.22
32875;BME280;40468;42.128;24.750;2023-03-30T02:19:55;100350.59;;;5.39;37.31
32875;BME280;40468;42.128;24.750;2023-03-30T02:21:27;100350.63;;;5.36;37.31
32875;BME280;40468;42.128;24.750;2023-03-30T02:22:59;100359.28;;;5.33;37.46
32875;BME280;40468;42.128;24.750;2023-03-30T02:24:32;100349.03;;;5.25;37.19
32875;BME280;40468;42.128;24.750;2023-03-30T02:26:05;100350.81;;;5.20;37.49
32875;BME280;40468;42.128;24.750;2023-03-30T02:27:40;100347.44;;;5.18;37.54
32875;BME280;40468;42.128;24.750;2023-03-30T02:29:13;100350.88;;;5.17;37.66
32875;BME280;40468;42.128;24.750;2023-03-30T02:30:45;100353.50;;;5.16;37.80
32875;BME280;40468;42.128;24.750;2023-03-30T02:32:19;100352.69;;;5.12;37.91
32875;BME280;40468;42.128;24.750;2023-03-30T02:34:07;100361.28;;;5.13;37.84
32875;BME280;40468;42.128;24.750;2023-03-30T02:35:56;100362.19;;;5.10;37.92
32875;BME280;40468;42.128;24.750;2023-03-30T02:37:40;100369.94;;;5.09;38.11
32875;BME280;40468;42.128;24.750;2023-03-30T02:39:22;100212.06;;;4.17;38.09
32875;BME280;40468;42.128;24.750;2023-03-30T02:41:04;100373.44;;;5.05;38.30
32875;BME280;40468;42.128;24.750;2023-03-30T02:43:01;100361.50;;;4.97;38.30
32875;BME280;40468;42.128;24.750;2023-03-30T02:44:41;100365.78;;;5.00;38.37
32875;BME280;40468;42.128;24.750;2023-03-30T02:46:29;100364.88;;;4.99;38.45
32875;BME280;40468;42.128;24.750;2023-03-30T02:48:15;100371.81;;;4.97;38.46
32875;BME280;40468;42.128;24.750;2023-03-30T02:49:55;100368.41;;;4.95;38.60
32875;BME280;40468;42.128;24.750;2023-03-30T02:51:38;100371.88;;;4.94;38.55
32875;BME280;40468;42.128;24.750;2023-03-30T02:53:16;100240.53;;;4.06;38.45
32875;BME280;40468;42.128;24.750;2023-03-30T02:54:57;100312.16;;;4.54;38.55
32875;BME280;40468;42.128;24.750;2023-03-30T02:56:34;100377.88;;;4.95;38.60
32875;BME280;40468;42.128;24.750;2023-03-30T02:58:13;100373.56;;;4.94;38.69
32875;BME280;40468;42.128;24.750;2023-03-30T02:59:50;100360.81;;;4.83;38.65
32875;BME280;40468;42.128;24.750;2023-03-30T03:01:29;100381.31;;;4.94;38.92
32875;BME280;40468;42.128;24.750;2023-03-30T03:03:09;100380.47;;;4.93;38.84
32875;BME280;40468;42.128;24.750;2023-03-30T03:04:44;100378.72;;;4.94;38.79
32875;BME280;40468;42.128;24.750;2023-03-30T03:06:16;100374.50;;;4.90;38.94
32875;BME280;40468;42.128;24.750;2023-03-30T03:07:50;100382.19;;;4.93;38.91
32875;BME280;40468;42.128;24.750;2023-03-30T03:09:22;100383.94;;;4.91;39.05
32875;BME280;40468;42.128;24.750;2023-03-30T03:10:55;100375.38;;;4.87;38.87
32875;BME280;40468;42.128;24.750;2023-03-30T03:12:27;100372.91;;;4.78;39.11
32875;BME280;40468;42.128;24.750;2023-03-30T03:14:00;100378.03;;;4.83;39.14
32875;BME280;40468;42.128;24.750;2023-03-30T03:15:32;100376.31;;;4.82;38.96
32875;BME280;40468;42.128;24.750;2023-03-30T03:17:05;100371.19;;;4.78;39.02
32875;BME280;40468;42.128;24.750;2023-03-30T03:18:37;100307.25;;;4.32;39.19
32875;BME280;40468;42.128;24.750;2023-03-30T03:20:11;100375.53;;;4.76;39.20
32875;BME280;40468;42.128;24.750;2023-03-30T03:21:43;100378.09;;;4.76;39.41
32875;BME280;40468;42.128;24.750;2023-03-30T03:23:15;100378.09;;;4.76;39.47
32875;BME280;40468;42.128;24.750;2023-03-30T03:24:47;100374.66;;;4.76;39.49
32875;BME280;40468;42.128;24.750;2023-03-30T03:26:19;100237.31;;;3.86;39.25
32875;BME280;40468;42.128;24.750;2023-03-30T03:27:51;100373.00;;;4.72;39.40
32875;BME280;40468;42.128;24.750;2023-03-30T03:29:24;100383.28;;;4.75;39.55
32875;BME280;40468;42.128;24.750;2023-03-30T03:30:55;100383.28;;;4.75;39.47
32875;BME280;40468;42.128;24.750;2023-03-30T03:32:27;100380.69;;;4.75;39.35
32875;BME280;40468;42.128;24.750;2023-03-30T03:33:59;100383.28;;;4.75;39.41
32875;BME280;40468;42.128;24.750;2023-03-30T03:35:30;100382.44;;;4.74;39.50
32875;BME280;40468;42.128;24.750;2023-03-30T03:37:02;100387.56;;;4.76;39.44
32875;BME280;40468;42.128;24.750;2023-03-30T03:38:34;100383.28;;;4.76;39.55
32875;BME280;40468;42.128;24.750;2023-03-30T03:40:07;100390.13;;;4.77;39.51
32875;BME280;40468;42.128;24.750;2023-03-30T03:41:40;100326.09;;;4.38;39.34
32875;BME280;40468;42.128;24.750;2023-03-30T03:43:12;100392.72;;;4.76;39.43
32875;BME280;40468;42.128;24.750;2023-03-30T03:44:45;100394.44;;;4.77;39.60
32875;BME280;40468;42.128;24.750;2023-03-30T03:46:16;100401.34;;;4.76;39.57
32875;BME280;40468;42.128;24.750;2023-03-30T03:47:49;100400.50;;;4.74;39.64
32875;BME280;40468;42.128;24.750;2023-03-30T03:49:21;100405.66;;;4.73;39.65
32875;BME280;40468;42.128;24.750;2023-03-30T03:50:53;100399.69;;;4.69;39.89
32875;BME280;40468;42.128;24.750;2023-03-30T03:52:25;100409.19;;;4.66;39.94
32875;BME280;40468;42.128;24.750;2023-03-30T03:53:58;100410.03;;;4.66;40.08
32875;BME280;40468;42.128;24.750;2023-03-30T03:55:29;100340.88;;;4.23;40.00
32875;BME280;40468;42.128;24.750;2023-03-30T03:57:04;100416.06;;;4.65;40.03
32875;BME280;40468;42.128;24.750;2023-03-30T03:58:36;100413.50;;;4.65;40.19
32875;BME280;40468;42.128;24.750;2023-03-30T04:00:10;100416.06;;;4.64;40.21
32875;BME280;40468;42.128;24.750;2023-03-30T04:01:45;100417.81;;;4.63;40.25
32875;BME280;40468;42.128;24.750;2023-03-30T04:03:17;100428.13;;;4.63;40.35
32875;BME280;40468;42.128;24.750;2023-03-30T04:04:49;100418.69;;;4.62;40.52
32875;BME280;40468;42.128;24.750;2023-03-30T04:06:22;100391.38;;;4.43;40.56
32875;BME280;40468;42.128;24.750;2023-03-30T04:07:54;100414.41;;;4.60;40.71
32875;BME280;40468;42.128;24.750;2023-03-30T04:09:26;100409.25;;;4.58;40.74
32875;BME280;40468;42.128;24.750;2023-03-30T04:11:03;100409.28;;;4.55;40.78
32875;BME280;40468;42.128;24.750;2023-03-30T04:12:37;100415.31;;;4.54;40.83
32875;BME280;40468;42.128;24.750;2023-03-30T04:14:09;100414.50;;;4.49;40.86
32875;BME280;40468;42.128;24.750;2023-03-30T04:15:42;100417.97;;;4.46;40.91
32875;BME280;40468;42.128;24.750;2023-03-30T04:17:14;100425.75;;;4.43;41.03
32875;BME280;40468;42.128;24.750;2023-03-30T04:18:46;100422.38;;;4.38;41.09
32875;BME280;40468;42.128;24.750;2023-03-30T04:20:18;100420.63;;;4.40;41.41
32875;BME280;40468;42.128;24.750;2023-03-30T04:21:52;100424.09;;;4.39;41.40
32875;BME280;40468;42.128;24.750;2023-03-30T04:23:25;100424.06;;;4.38;41.29
32875;BME280;40468;42.128;24.750;2023-03-30T04:25:00;100425.00;;;4.35;41.44
32875;BME280;40468;42.128;24.750;2023-03-30T04:26:31;100418.94;;;4.34;41.38
32875;BME280;40468;42.128;24.750;2023-03-30T04:28:03;100426.75;;;4.28;41.60
32875;BME280;40468;42.128;24.750;2023-03-30T04:29:35;100419.97;;;4.18;41.62
32875;BME280;40468;42.128;24.750;2023-03-30T04:31:12;100408.81;;;4.16;41.73
32875;BME280;40468;42.128;24.750;2023-03-30T04:32:45;100435.34;;;4.30;41.81
32875;BME280;40468;42.128;24.750;2023-03-30T04:34:24;100435.34;;;4.30;41.59
32875;BME280;40468;42.128;24.750;2023-03-30T04:35:56;100437.91;;;4.30;41.55
32875;BME280;40468;42.128;24.750;2023-03-30T04:37:28;100430.25;;;4.24;41.63
32875;BME280;40468;42.128;24.750;2023-03-30T04:39:00;100433.66;;;4.26;41.51
32875;BME280;40468;42.128;24.750;2023-03-30T04:40:33;100439.69;;;4.24;41.46
32875;BME280;40468;42.128;24.750;2023-03-30T04:42:04;100442.25;;;4.25;41.59
32875;BME280;40468;42.128;24.750;2023-03-30T04:43:36;100448.28;;;4.24;41.56
32875;BME280;40468;42.128;24.750;2023-03-30T04:45:09;100449.97;;;4.25;41.71
32875;BME280;40468;42.128;24.750;2023-03-30T04:46:41;100450.84;;;4.27;41.60
32875;BME280;40468;42.128;24.750;2023-03-30T04:48:13;100448.25;;;4.26;41.69
32875;BME280;40468;42.128;24.750;2023-03-30T04:49:45;100454.28;;;4.26;41.83
32875;BME280;40468;42.128;24.750;2023-03-30T04:51:17;100456.81;;;4.31;41.69
32875;BME280;40468;42.128;24.750;2023-03-30T04:52:49;100462.81;;;4.31;41.92
32875;BME280;40468;42.128;24.750;2023-03-30T04:54:20;100456.81;;;4.32;41.70
32875;BME280;40468;42.128;24.750;2023-03-30T04:55:52;100462.00;;;4.29;41.75
32875;BME280;40468;42.128;24.750;2023-03-30T04:57:24;100456.00;;;4.27;41.92
32875;BME280;40468;42.128;24.750;2023-03-30T04:58:55;100453.50;;;4.18;41.71
32875;BME280;40468;42.128;24.750;2023-03-30T05:00:27;100468.09;;;4.19;41.73
32875;BME280;40468;42.128;24.750;2023-03-30T05:02:00;100467.25;;;4.20;41.77
32875;BME280;40468;42.128;24.750;2023-03-30T05:03:33;100462.94;;;4.21;41.83
32875;BME280;40468;42.128;24.750;2023-03-30T05:05:05;100452.66;;;4.18;41.67
32875;BME280;40468;42.128;24.750;2023-03-30T05:06:47;100468.88;;;4.29;41.80
32875;BME280;40468;42.128;24.750;2023-03-30T05:08:29;100456.88;;;4.26;41.84
32875;BME280;40468;42.128;24.750;2023-03-30T05:10:02;100471.38;;;4.37;41.42
32875;BME280;40468;42.128;24.750;2023-03-30T05:11:34;100476.53;;;4.37;41.34
32875;BME280;40468;42.128;24.750;2023-03-30T05:13:05;100479.06;;;4.43;41.27
32875;BME280;40468;42.128;24.750;2023-03-30T05:14:37;100476.44;;;4.46;41.46
32875;BME280;40468;42.128;24.750;2023-03-30T05:16:08;100469.53;;;4.51;41.34
32875;BME280;40468;42.128;24.750;2023-03-30T05:17:41;100469.50;;;4.55;41.33
32875;BME280;40468;42.128;24.750;2023-03-30T05:19:12;100467.69;;;4.61;41.16
32875;BME280;40468;42.128;24.750;2023-03-30T05:20:44;100478.00;;;4.64;41.25
32875;BME280;40468;42.128;24.750;2023-03-30T05:22:16;100476.22;;;4.67;41.21
32875;BME280;40468;42.128;24.750;2023-03-30T05:23:48;100487.38;;;4.72;41.15
32875;BME280;40468;42.128;24.750;2023-03-30T05:25:20;100477.00;;;4.77;41.16
32875;BME280;40468;42.128;24.750;2023-03-30T05:26:51;100483.00;;;4.79;41.16
32875;BME280;40468;42.128;24.750;2023-03-30T05:28:23;100482.06;;;4.85;41.30
32875;BME280;40468;42.128;24.750;2023-03-30T05:29:54;100476.88;;;4.88;41.04
32875;BME280;40468;42.128;24.750;2023-03-30T05:31:27;100477.66;;;4.96;40.96
32875;BME280;40468;42.128;24.750;2023-03-30T05:33:01;100480.16;;;5.04;40.93
32875;BME280;40468;42.128;24.750;2023-03-30T05:34:32;100486.09;;;5.10;40.83
32875;BME280;40468;42.128;24.750;2023-03-30T05:36:05;100480.84;;;5.16;40.89
32875;BME280;40468;42.128;24.750;2023-03-30T05:37:37;100483.34;;;5.24;40.71
32875;BME280;40468;42.128;24.750;2023-03-30T05:39:09;100485.81;;;5.32;40.51
32875;BME280;40468;42.128;24.750;2023-03-30T05:40:41;100490.91;;;5.39;40.47
32875;BME280;40468;42.128;24.750;2023-03-30T05:42:14;100485.63;;;5.47;40.47
32875;BME280;40468;42.128;24.750;2023-03-30T05:43:46;100484.69;;;5.54;40.33
32875;BME280;40468;42.128;24.750;2023-03-30T05:45:18;100480.03;;;5.78;40.20
32875;BME280;40468;42.128;24.750;2023-03-30T05:46:50;100472.47;;;6.23;39.99
32875;BME280;40468;42.128;24.750;2023-03-30T05:48:23;100479.94;;;6.88;39.38
32875;BME280;40468;42.128;24.750;2023-03-30T05:49:55;100485.25;;;7.65;38.58
32875;BME280;40468;42.128;24.750;2023-03-30T05:51:27;100480.84;;;8.43;37.60
32875;BME280;40468;42.128;24.750;2023-03-30T05:52:59;100474.34;;;9.22;36.35
32875;BME280;40468;42.128;24.750;2023-03-30T05:54:30;100464.28;;;9.97;35.48
32875;BME280;40468;42.128;24.750;2023-03-30T05:56:03;100420.50;;;10.37;34.45
32875;BME280;40468;42.128;24.750;2023-03-30T05:57:34;100472.00;;;11.27;33.62
32875;BME280;40468;42.128;24.750;2023-03-30T05:59:06;100463.84;;;11.80;32.54
32875;BME280;40468;42.128;24.750;2023-03-30T06:00:39;100456.91;;;12.23;31.99
32875;BME280;40468;42.128;24.750;2023-03-30T06:02:12;100461.97;;;12.28;31.20
32875;BME280;40468;42.128;24.750;2023-03-30T06:03:45;100469.50;;;11.92;31.21
32875;BME280;40468;42.128;24.750;2023-03-30T06:05:17;100479.47;;;11.58;31.45
32875;BME280;40468;42.128;24.750;2023-03-30T06:06:49;100477.97;;;11.29;31.88
32875;BME280;40468;42.128;24.750;2023-03-30T06:08:22;100480.66;;;11.04;32.38
32875;BME280;40468;42.128;24.750;2023-03-30T06:09:56;100483.31;;;10.78;32.33
32875;BME280;40468;42.128;24.750;2023-03-30T06:11:29;100481.56;;;10.53;32.82
32875;BME280;40468;42.128;24.750;2023-03-30T06:13:02;100481.50;;;10.30;33.05
32875;BME280;40468;42.128;24.750;2023-03-30T06:14:34;100482.13;;;10.10;33.09
32875;BME280;40468;42.128;24.750;2023-03-30T06:16:06;100483.28;;;9.99;33.42
32875;BME280;40468;42.128;24.750;2023-03-30T06:17:38;100479.06;;;9.97;33.66
32875;BME280;40468;42.128;24.750;2023-03-30T06:19:12;100488.56;;;9.98;33.65
32875;BME280;40468;42.128;24.750;2023-03-30T06:20:45;100489.31;;;10.01;33.64
32875;BME280;40468;42.128;24.750;2023-03-30T06:22:18;100487.34;;;10.08;33.59
32875;BME280;40468;42.128;24.750;2023-03-30T06:23:50;100494.06;;;10.15;33.64
32875;BME280;40468;42.128;24.750;2023-03-30T06:27:44;100492.69;;;10.32;33.90
32875;BME280;40468;42.128;24.750;2023-03-30T06:29:16;100494.13;;;10.40;33.61
32875;BME280;40468;42.128;24.750;2023-03-30T06:30:48;100486.91;;;10.50;33.56
32875;BME280;40468;42.128;24.750;2023-03-30T06:32:21;100445.72;;;10.35;33.39
32875;BME280;40468;42.128;24.750;2023-03-30T06:33:52;100490.13;;;10.82;33.24
32875;BME280;40468;42.128;24.750;2023-03-30T06:35:26;100476.00;;;10.89;33.33
32875;BME280;40468;42.128;24.750;2023-03-30T06:36:58;100483.03;;;11.10;33.01
32875;BME280;40468;42.128;24.750;2023-03-30T06:38:30;100487.63;;;11.27;32.85
32875;BME280;40468;42.128;24.750;2023-03-30T06:40:02;100483.72;;;11.39;32.57
32875;BME280;40468;42.128;24.750;2023-03-30T06:41:38;100487.53;;;11.52;32.70
32875;BME280;40468;42.128;24.750;2023-03-30T06:43:14;100493.78;;;11.72;32.62
32875;BME280;40468;42.128;24.750;2023-03-30T06:44:46;100475.03;;;11.84;32.42
32875;BME280;40468;42.128;24.750;2023-03-30T06:46:18;100488.72;;;12.13;32.02
32875;BME280;40468;42.128;24.750;2023-03-30T06:47:50;100486.50;;;12.44;32.22
32875;BME280;40468;42.128;24.750;2023-03-30T06:49:22;100489.91;;;12.87;31.65
32875;BME280;40468;42.128;24.750;2023-03-30T06:50:55;100493.91;;;13.35;31.31
32875;BME280;40468;42.128;24.750;2023-03-30T06:52:27;100490.53;;;13.88;30.75
32875;BME280;40468;42.128;24.750;2023-03-30T06:53:59;100492.53;;;14.37;29.97
32875;BME280;40468;42.128;24.750;2023-03-30T06:55:31;100491.19;;;14.82;29.63
32875;BME280;40468;42.128;24.750;2023-03-30T06:57:03;100473.16;;;15.25;29.18
32875;BME280;40468;42.128;24.750;2023-03-30T06:58:34;100486.06;;;15.93;28.40
32875;BME280;40468;42.128;24.750;2023-03-30T07:00:07;100482.25;;;16.45;27.87
32875;BME280;40468;42.128;24.750;2023-03-30T07:01:42;100440.47;;;16.54;27.54
32875;BME280;40468;42.128;24.750;2023-03-30T07:03:15;100478.88;;;17.16;26.99
32875;BME280;40468;42.128;24.750;2023-03-30T07:04:48;100480.78;;;17.55;26.63
32875;BME280;40468;42.128;24.750;2023-03-30T07:06:22;100481.94;;;17.92;26.29
32875;BME280;40468;42.128;24.750;2023-03-30T07:07:55;100488.13;;;18.18;25.77
32875;BME280;40468;42.128;24.750;2023-03-30T07:09:27;100475.44;;;18.38;25.78
32875;BME280;40468;42.128;24.750;2023-03-30T07:10:59;100475.03;;;18.57;25.57
32875;BME280;40468;42.128;24.750;2023-03-30T07:12:31;100478.63;;;18.69;25.25
32875;BME280;40468;42.128;24.750;2023-03-30T07:14:03;100474.19;;;18.56;25.26
32875;BME280;40468;42.128;24.750;2023-03-30T07:15:35;100473.63;;;18.51;25.44
32875;BME280;40468;42.128;24.750;2023-03-30T07:17:07;100470.25;;;18.36;25.33
32875;BME280;40468;42.128;24.750;2023-03-30T07:18:39;100464.72;;;18.14;25.48
32875;BME280;40468;42.128;24.750;2023-03-30T07:20:11;100476.19;;;18.13;25.67
32875;BME280;40468;42.128;24.750;2023-03-30T07:21:46;100479.28;;;18.19;25.67
32875;BME280;40468;42.128;24.750;2023-03-30T07:23:18;100466.00;;;18.21;25.72
32875;BME280;40468;42.128;24.750;2023-03-30T07:24:51;100475.63;;;18.22;25.60
32875;BME280;40468;42.128;24.750;2023-03-30T07:26:22;100466.94;;;18.07;25.61
32875;BME280;40468;42.128;24.750;2023-03-30T07:27:54;100468.47;;;17.97;25.73
32875;BME280;40468;42.128;24.750;2023-03-30T07:29:27;100472.50;;;18.03;25.92
32875;BME280;40468;42.128;24.750;2023-03-30T07:31:03;100465.78;;;18.11;25.98
32875;BME280;40468;42.128;24.750;2023-03-30T07:32:35;100461.56;;;18.22;25.79
32875;BME280;40468;42.128;24.750;2023-03-30T07:34:07;100468.50;;;18.10;25.89
32875;BME280;40468;42.128;24.750;2023-03-30T07:35:42;100464.00;;;17.85;26.10
32875;BME280;40468;42.128;24.750;2023-03-30T07:37:15;100469.22;;;17.58;26.40
32875;BME280;40468;42.128;24.750;2023-03-30T07:38:47;100470.53;;;17.50;26.38
32875;BME280;40468;42.128;24.750;2023-03-30T07:40:19;100462.38;;;17.41;26.57
32875;BME280;40468;42.128;24.750;2023-03-30T07:41:51;100470.84;;;17.46;26.90
32875;BME280;40468;42.128;24.750;2023-03-30T07:43:23;100475.53;;;17.55;26.75
32875;BME280;40468;42.128;24.750;2023-03-30T07:44:56;100471.84;;;17.58;26.79
32875;BME280;40468;42.128;24.750;2023-03-30T07:46:28;100462.13;;;17.72;26.73
32875;BME280;40468;42.128;24.750;2023-03-30T07:48:00;100463.59;;;17.91;26.60
32875;BME280;40468;42.128;24.750;2023-03-30T07:49:32;100472.34;;;17.91;26.37
32875;BME280;40468;42.128;24.750;2023-03-30T07:51:06;100470.94;;;17.71;26.42
32875;BME280;40468;42.128;24.750;2023-03-30T07:52:40;100473.66;;;17.57;26.73
32875;BME280;40468;42.128;24.750;2023-03-30T07:54:12;100474.97;;;17.50;26.59
32875;BME280;40468;42.128;24.750;2023-03-30T07:55:44;100466.41;;;17.46;26.86
32875;BME280;40468;42.128;24.750;2023-03-30T07:57:17;100472.97;;;17.54;26.84
32875;BME280;40468;42.128;24.750;2023-03-30T07:58:48;100442.19;;;17.27;26.72
32875;BME280;40468;42.128;24.750;2023-03-30T08:00:21;100470.84;;;17.46;26.80
32875;BME280;40468;42.128;24.750;2023-03-30T08:01:53;100477.66;;;17.63;27.00
32875;BME280;40468;42.128;24.750;2023-03-30T08:03:25;100476.34;;;17.84;26.66
32875;BME280;40468;42.128;24.750;2023-03-30T08:04:57;100456.53;;;17.91;26.41
32875;BME280;40468;42.128;24.750;2023-03-30T08:06:30;100466.81;;;18.09;26.30
32875;BME280;40468;42.128;24.750;2023-03-30T08:08:03;100464.13;;;18.23;26.07
32875;BME280;40468;42.128;24.750;2023-03-30T08:09:35;100453.16;;;18.29;25.89
32875;BME280;40468;42.128;24.750;2023-03-30T08:11:08;100464.47;;;18.31;25.86
32875;BME280;40468;42.128;24.750;2023-03-30T08:12:40;100468.69;;;18.34;25.85
32875;BME280;40468;42.128;24.750;2023-03-30T08:14:12;100465.84;;;18.37;25.68
32875;BME280;40468;42.128;24.750;2023-03-30T08:15:44;100468.56;;;18.48;25.39
32875;BME280;40468;42.128;24.750;2023-03-30T08:17:16;100453.09;;;18.56;25.71